Time;durP1;ratioP1;P1;durP2;ratioP2;P2;SDS_P1;SDS_P2;PMS_P1;PMS_P2;Temp;Humidity;BMP_temperature;BMP_pressure;BME280_temperature;BME280_humidity;BME280_pressure;Samples;Min_cycle;Max_cycle;Signal;HPM_P1;HPM_P2
2022/10/23 00:01:14;;;;;;;;;;;19.50;74.50;;;;;;4493973;31;19981;-69
2022/10/23 00:03:40;;;;;;;;;;;19.50;74.50;;;;;;4493975;31;19986;-69
2022/10/23 00:06:06;;;;;;;;;;;19.50;74.50;;;;;;4493565;31;19957;-69
2022/10/23 00:08:32;;;;;;;;;;;19.50;74.50;;;;;;4494178;31;20430;-69
2022/10/23 00:10:58;;;;;;;;;;;19.50;74.50;;;;;;4493761;31;20027;-69
2022/10/23 00:13:23;;;;;;;;;;;19.50;74.60;;;;;;4494467;31;19974;-69
2022/10/23 00:15:49;;;;;;;;;;;19.50;74.50;;;;;;4494447;31;19981;-69
2022/10/23 00:18:15;;;;;;;;;;;19.50;74.60;;;;;;4494948;31;19978;-69
2022/10/23 00:20:40;;;;;;;;;;;19.50;74.50;;;;;;4494535;31;20005;-69
2022/10/23 00:23:06;;;;;;;;;;;19.40;74.50;;;;;;4494615;31;20012;-69
2022/10/23 00:25:32;;;;;;;;;;;19.50;74.50;;;;;;4494507;31;19985;-69
2022/10/23 00:27:58;;;;;;;;;;;19.40;74.40;;;;;;4494740;31;19980;-69
2022/10/23 00:30:24;;;;;;;;;;;19.40;74.40;;;;;;4494588;31;20055;-69
2022/10/23 00:32:51;;;;;;;;;;;19.40;74.40;;;;;;4494455;31;20003;-69
2022/10/23 00:35:17;;;;;;;;;;;19.40;74.40;;;;;;4494120;31;19980;-69
2022/10/23 00:37:42;;;;;;;;;;;19.40;75.20;;;;;;4494052;31;20033;-70
2022/10/23 00:40:08;;;;;;;;;;;19.40;74.40;;;;;;4494331;31;19974;-69
2022/10/23 00:42:34;;;;;;;;;;;19.40;74.40;;;;;;4494390;31;19966;-69
2022/10/23 00:45:15;;;;;;;;;;;19.40;74.40;;;;;;4494278;31;20106;-69
2022/10/23 00:47:40;;;;;;;;;;;19.30;74.30;;;;;;4494505;31;19977;-68
2022/10/23 00:50:06;;;;;;;;;;;19.40;74.40;;;;;;4494163;31;20012;-69
2022/10/23 00:52:33;;;;;;;;;;;19.40;74.40;;;;;;4494181;31;19969;-69
2022/10/23 00:54:59;;;;;;;;;;;19.40;74.40;;;;;;4494339;31;19992;-69
2022/10/23 00:57:24;;;;;;;;;;;19.30;74.30;;;;;;4494415;31;20299;-69
2022/10/23 00:59:50;;;;;;;;;;;19.30;74.30;;;;;;4494101;31;19972;-69
2022/10/23 01:02:16;;;;;;;;;;;19.30;74.40;;;;;;4494048;31;20385;-69
2022/10/23 01:04:42;;;;;;;;;;;19.30;74.30;;;;;;4494150;31;20013;-69
2022/10/23 01:07:10;;;;;;;;;;;19.30;74.30;;;;;;4493935;31;20303;-69
2022/10/23 01:09:42;;;;;;;;;;;19.30;74.30;;;;;;4493588;31;19978;-69
2022/10/23 01:12:27;;;;;;;;;;;19.30;74.30;;;;;;4493427;31;19988;-69
2022/10/23 01:15:08;;;;;;;;;;;19.30;74.30;;;;;;4493866;31;20047;-69
2022/10/23 01:17:37;;;;;;;;;;;19.30;74.30;;;;;;4493143;31;20127;-69
2022/10/23 01:20:09;;;;;;;;;;;19.30;74.30;;;;;;4493654;31;19978;-69
2022/10/23 01:22:52;;;;;;;;;;;19.30;74.20;;;;;;4493592;31;19985;-69
2022/10/23 01:25:23;;;;;;;;;;;19.30;74.30;;;;;;4493881;31;20051;-69
2022/10/23 01:27:51;;;;;;;;;;;19.20;74.20;;;;;;4493311;31;19973;-69
2022/10/23 01:30:17;;;;;;;;;;;19.20;74.20;;;;;;4493581;31;20412;-69
2022/10/23 01:32:44;;;;;;;;;;;19.30;74.20;;;;;;4479421;31;19970;-69
2022/10/23 01:35:31;;;;;;;;;;;19.20;74.20;;;;;;4493740;31;19993;-69
2022/10/23 01:38:04;;;;;;;;;;;19.30;75.10;;;;;;4493261;31;19985;-69
2022/10/23 01:40:33;;;;;;;;;;;19.30;74.30;;;;;;4493204;31;20024;-68
2022/10/23 01:43:07;;;;;;;;;;;19.30;74.20;;;;;;4493156;31;19974;-69
2022/10/23 01:45:44;;;;;;;;;;;19.30;74.20;;;;;;4493364;31;19974;-69
2022/10/23 01:48:12;;;;;;;;;;;19.30;74.20;;;;;;4493423;31;19973;-69
2022/10/23 01:50:39;;;;;;;;;;;19.20;74.10;;;;;;4493614;31;19973;-69
2022/10/23 01:53:04;;;;;;;;;;;19.20;74.10;;;;;;4493242;31;19969;-70
2022/10/23 01:55:31;;;;;;;;;;;19.20;74.10;;;;;;4493240;31;19980;-69
2022/10/23 01:57:58;;;;;;;;;;;19.20;74.10;;;;;;4493241;31;20059;-69
2022/10/23 02:00:24;;;;;;;;;;;19.20;74.00;;;;;;4478639;31;19986;-69
2022/10/23 02:02:50;;;;;;;;;;;19.20;74.00;;;;;;4493131;31;19977;-69
2022/10/23 02:05:26;;;;;;;;;;;19.20;74.10;;;;;;4493226;31;20099;-67
2022/10/23 02:07:52;;;;;;;;;;;19.20;74.00;;;;;;4493175;31;20006;-69
2022/10/23 02:10:19;;;;;;;;;;;19.20;74.00;;;;;;4493167;31;20292;-69
2022/10/23 02:12:48;;;;;;;;;;;19.20;74.00;;;;;;4492673;31;19985;-69
2022/10/23 02:15:18;;;;;;;;;;;19.10;73.90;;;;;;4493003;31;20096;-69
2022/10/23 02:18:19;;;;;;;;;;;19.20;73.90;;;;;;4492993;31;19985;-68
2022/10/23 02:20:51;;;;;;;;;;;19.10;73.80;;;;;;4443773;32;20003;-69
2022/10/23 02:23:21;;;;;;;;;;;19.20;73.90;;;;;;4484511;31;19981;-69
2022/10/23 02:25:47;;;;;;;;;;;19.10;73.80;;;;;;4492897;31;20406;-69
2022/10/23 02:28:15;;;;;;;;;;;19.10;73.80;;;;;;4492799;31;19983;-69
2022/10/23 02:30:43;;;;;;;;;;;19.10;73.80;;;;;;4492778;31;19981;-69
2022/10/23 02:33:10;;;;;;;;;;;19.20;73.90;;;;;;4478683;31;19973;-69
2022/10/23 02:35:36;;;;;;;;;;;19.10;73.80;;;;;;4492775;31;20318;-69
2022/10/23 02:38:02;;;;;;;;;;;19.10;73.80;;;;;;4492969;31;20419;-69
2022/10/23 02:40:34;;;;;;;;;;;19.10;73.80;;;;;;4492801;31;20294;-69
2022/10/23 02:43:02;;;;;;;;;;;19.10;73.70;;;;;;4492771;32;19986;-69
2022/10/23 02:45:35;;;;;;;;;;;19.10;73.70;;;;;;4492719;32;20108;-69
2022/10/23 02:48:09;;;;;;;;;;;19.10;73.80;;;;;;4492635;32;19993;-69
2022/10/23 02:50:35;;;;;;;;;;;19.10;73.70;;;;;;4492704;32;20554;-69
2022/10/23 02:53:19;;;;;;;;;;;19.10;73.70;;;;;;4492581;32;20092;-69
2022/10/23 02:55:57;;;;;;;;;;;19.10;73.70;;;;;;4492709;32;19985;-69
2022/10/23 02:58:41;;;;;;;;;;;19.10;73.70;;;;;;4492627;32;20426;-69
2022/10/23 03:01:14;;;;;;;;;;;19.10;73.70;;;;;;4492524;32;20414;-69
2022/10/23 03:03:41;;;;;;;;;;;19.10;73.70;;;;;;4492690;32;19988;-69
2022/10/23 03:06:07;;;;;;;;;;;19.00;73.60;;;;;;4492408;32;19989;-69
2022/10/23 03:08:43;;;;;;;;;;;19.10;73.70;;;;;;4492323;32;19996;-69
2022/10/23 03:11:09;;;;;;;;;;;19.00;73.60;;;;;;4492657;32;19969;-69
2022/10/23 03:13:35;;;;;;;;;;;19.00;73.60;;;;;;4492463;32;19966;-69
2022/10/23 03:16:01;;;;;;;;;;;19.00;73.60;;;;;;4492587;32;20165;-69
2022/10/23 03:18:27;;;;;;;;;;;19.00;73.60;;;;;;4492277;32;19981;-69
2022/10/23 03:20:52;;;;;;;;;;;19.00;73.60;;;;;;4492333;32;19965;-69
2022/10/23 03:23:18;;;;;;;;;;;19.00;73.60;;;;;;4492641;32;19965;-69
2022/10/23 03:25:44;;;;;;;;;;;19.00;73.60;;;;;;4492445;32;19978;-69
2022/10/23 03:28:09;;;;;;;;;;;19.00;73.60;;;;;;4492641;32;19969;-70
2022/10/23 03:30:35;;;;;;;;;;;19.00;73.60;;;;;;4492097;32;19976;-69
2022/10/23 03:33:01;;;;;;;;;;;19.00;73.60;;;;;;4492295;32;19970;-69
2022/10/23 03:35:26;;;;;;;;;;;19.00;73.60;;;;;;4492566;32;19979;-69
2022/10/23 03:37:53;;;;;;;;;;;19.00;73.60;;;;;;4492487;32;20527;-69
2022/10/23 03:40:18;;;;;;;;;;;19.00;73.60;;;;;;4492932;31;19970;-69
2022/10/23 03:42:44;;;;;;;;;;;18.90;73.50;;;;;;4495164;31;19984;-69
2022/10/23 03:45:10;;;;;;;;;;;19.00;73.60;;;;;;4481001;31;20382;-69
2022/10/23 03:47:39;;;;;;;;;;;18.90;73.50;;;;;;4495138;31;20095;-69
2022/10/23 03:50:06;;;;;;;;;;;19.00;73.60;;;;;;4495292;31;19969;-69
2022/10/23 03:52:32;;;;;;;;;;;19.00;73.60;;;;;;4495018;31;20382;-69
2022/10/23 03:54:57;;;;;;;;;;;18.90;73.50;;;;;;4495012;31;20359;-69
2022/10/23 03:57:23;;;;;;;;;;;18.90;73.50;;;;;;4494661;31;19993;-69
2022/10/23 03:59:49;;;;;;;;;;;19.00;73.50;;;;;;4494968;31;19965;-69
2022/10/23 04:02:14;;;;;;;;;;;18.90;73.50;;;;;;4494872;31;20096;-69
2022/10/23 04:04:40;;;;;;;;;;;18.90;73.50;;;;;;4494527;31;19973;-70
2022/10/23 04:07:06;;;;;;;;;;;18.90;73.50;;;;;;4480187;31;20414;-69
2022/10/23 04:09:31;;;;;;;;;;;18.90;73.50;;;;;;4494584;31;20059;-69
2022/10/23 04:11:57;;;;;;;;;;;18.90;73.50;;;;;;4480108;31;20023;-69
2022/10/23 04:14:23;;;;;;;;;;;18.90;73.50;;;;;;4494638;31;20314;-70
2022/10/23 04:16:48;;;;;;;;;;;18.90;73.50;;;;;;4494204;31;19980;-69
2022/10/23 04:19:16;;;;;;;;;;;18.90;73.50;;;;;;4494483;31;20122;-69
2022/10/23 04:21:42;;;;;;;;;;;18.90;73.40;;;;;;4494373;31;19974;-70
2022/10/23 04:24:07;;;;;;;;;;;18.90;73.40;;;;;;4494567;31;20461;-69
2022/10/23 04:26:33;;;;;;;;;;;18.90;73.40;;;;;;4494546;31;20509;-69
2022/10/23 04:28:59;;;;;;;;;;;18.80;73.30;;;;;;4494273;31;19981;-69
2022/10/23 04:31:25;;;;;;;;;;;18.90;73.40;;;;;;4494450;31;20051;-69
2022/10/23 04:33:50;;;;;;;;;;;18.80;73.30;;;;;;4480159;31;19973;-69
2022/10/23 04:36:16;;;;;;;;;;;18.80;73.30;;;;;;4494028;31;20100;-69
2022/10/23 04:38:42;;;;;;;;;;;18.90;73.40;;;;;;4494199;31;20013;-69
2022/10/23 04:41:08;;;;;;;;;;;18.80;73.30;;;;;;4494322;31;19985;-69
2022/10/23 04:43:34;;;;;;;;;;;18.80;73.30;;;;;;4480127;31;20058;-69
2022/10/23 04:46:00;;;;;;;;;;;18.80;73.30;;;;;;4479811;31;20370;-69
2022/10/23 04:48:25;;;;;;;;;;;18.80;73.20;;;;;;4493933;31;19981;-69
2022/10/23 04:50:56;;;;;;;;;;;18.80;73.30;;;;;;4494220;31;19965;-67
2022/10/23 04:53:22;;;;;;;;;;;18.80;73.30;;;;;;4479284;31;20426;-69
2022/10/23 04:55:49;;;;;;;;;;;18.80;73.20;;;;;;4494334;31;20401;-69
2022/10/23 04:58:15;;;;;;;;;;;18.80;73.20;;;;;;4494098;31;20410;-69
2022/10/23 05:00:40;;;;;;;;;;;18.80;73.30;;;;;;4494239;31;20014;-69
2022/10/23 05:03:06;;;;;;;;;;;18.80;73.20;;;;;;4466653;31;19970;-69
2022/10/23 05:05:32;;;;;;;;;;;18.80;73.30;;;;;;4494035;31;20019;-69
2022/10/23 05:07:57;;;;;;;;;;;18.80;73.20;;;;;;4493676;31;20410;-70
2022/10/23 05:10:23;;;;;;;;;;;18.80;73.20;;;;;;4493293;31;19970;-69
2022/10/23 05:12:49;;;;;;;;;;;18.80;73.20;;;;;;4493374;31;19977;-69
2022/10/23 05:15:14;;;;;;;;;;;18.70;73.20;;;;;;4493607;31;19982;-69
2022/10/23 05:17:41;;;;;;;;;;;18.70;73.20;;;;;;4493567;31;19969;-69
2022/10/23 05:20:11;;;;;;;;;;;18.70;73.20;;;;;;4493651;31;20504;-69
2022/10/23 05:22:38;;;;;;;;;;;18.70;73.20;;;;;;4479436;31;20409;-69
2022/10/23 05:25:04;;;;;;;;;;;18.80;73.20;;;;;;4493193;31;19974;-69
2022/10/23 05:27:30;;;;;;;;;;;18.70;73.20;;;;;;4493642;31;19984;-69
2022/10/23 05:29:55;;;;;;;;;;;18.70;73.20;;;;;;4493427;31;19973;-70
2022/10/23 05:32:22;;;;;;;;;;;18.70;73.20;;;;;;4493325;31;19988;-69
2022/10/23 05:34:48;;;;;;;;;;;18.70;73.20;;;;;;4493464;31;19977;-69
2022/10/23 05:37:15;;;;;;;;;;;18.70;73.20;;;;;;4493221;31;19957;-69
2022/10/23 05:39:41;;;;;;;;;;;18.70;73.10;;;;;;4493112;31;19985;-73
2022/10/23 05:42:07;;;;;;;;;;;18.70;73.20;;;;;;4493546;31;20059;-69
2022/10/23 05:44:33;;;;;;;;;;;18.70;73.20;;;;;;4493261;31;19989;-69
2022/10/23 05:46:58;;;;;;;;;;;18.70;73.10;;;;;;4493342;31;20036;-69
2022/10/23 05:49:24;;;;;;;;;;;18.70;73.10;;;;;;4478890;31;19976;-69
2022/10/23 05:51:50;;;;;;;;;;;18.70;73.20;;;;;;4493232;31;19981;-69
2022/10/23 05:54:15;;;;;;;;;;;18.70;73.20;;;;;;4492923;31;19965;-69
2022/10/23 05:56:41;;;;;;;;;;;18.70;73.20;;;;;;4493148;31;19957;-69
2022/10/23 05:59:07;;;;;;;;;;;18.70;73.10;;;;;;4493394;31;19985;-68
2022/10/23 06:01:33;;;;;;;;;;;18.70;73.10;;;;;;4493005;31;20032;-69
2022/10/23 06:03:59;;;;;;;;;;;18.70;73.10;;;;;;4492795;31;20028;-69
2022/10/23 06:06:25;;;;;;;;;;;18.70;73.20;;;;;;4492740;31;19993;-69
2022/10/23 06:08:51;;;;;;;;;;;18.70;73.20;;;;;;4493005;31;19965;-69
2022/10/23 06:11:17;;;;;;;;;;;18.70;73.20;;;;;;4492921;31;20436;-69
2022/10/23 06:13:43;;;;;;;;;;;18.60;73.90;;;;;;4492868;31;20095;-69
2022/10/23 06:16:10;;;;;;;;;;;18.70;73.20;;;;;;4493257;31;19985;-69
2022/10/23 06:18:36;;;;;;;;;;;18.60;73.10;;;;;;4493172;31;19978;-69
2022/10/23 06:21:02;;;;;;;;;;;18.60;73.10;;;;;;4478678;31;20072;-69
2022/10/23 06:23:29;;;;;;;;;;;18.60;73.10;;;;;;4493061;31;20039;-69
2022/10/23 06:25:55;;;;;;;;;;;18.60;73.10;;;;;;4492560;31;20005;-69
2022/10/23 06:28:21;;;;;;;;;;;18.60;73.10;;;;;;4492576;31;19989;-70
2022/10/23 06:30:47;;;;;;;;;;;18.60;73.20;;;;;;4492499;31;19982;-69
2022/10/23 06:33:12;;;;;;;;;;;18.60;73.10;;;;;;4492823;31;20127;-69
2022/10/23 06:35:38;;;;;;;;;;;18.60;73.10;;;;;;4492487;31;19970;-69
2022/10/23 06:38:04;;;;;;;;;;;18.60;73.10;;;;;;4478510;31;19973;-69
2022/10/23 06:40:30;;;;;;;;;;;18.60;73.10;;;;;;4492604;31;19977;-69
2022/10/23 06:42:56;;;;;;;;;;;18.60;73.10;;;;;;4492499;31;20004;-69
2022/10/23 06:45:22;;;;;;;;;;;18.60;73.10;;;;;;4492815;31;19980;-69
2022/10/23 06:47:51;;;;;;;;;;;18.60;73.20;;;;;;4492668;32;20342;-69
2022/10/23 06:50:16;;;;;;;;;;;18.60;73.20;;;;;;4492876;32;19977;-69
2022/10/23 06:52:42;;;;;;;;;;;18.60;73.20;;;;;;4492875;32;20127;-69
2022/10/23 06:55:08;;;;;;;;;;;18.60;73.20;;;;;;4492583;32;19980;-69
2022/10/23 06:57:34;;;;;;;;;;;18.60;73.20;;;;;;4493338;32;20092;-69
2022/10/23 06:59:59;;;;;;;;;;;18.60;73.20;;;;;;4492591;32;20366;-69
2022/10/23 07:02:25;;;;;;;;;;;18.60;73.20;;;;;;4492411;32;19961;-70
2022/10/23 07:04:51;;;;;;;;;;;18.50;73.10;;;;;;4492548;32;19969;-69
2022/10/23 07:07:16;;;;;;;;;;;18.50;72.70;;;;;;4492498;32;19966;-69
2022/10/23 07:09:42;;;;;;;;;;;18.50;72.80;;;;;;4492218;32;20426;-69
2022/10/23 07:12:08;;;;;;;;;;;18.50;72.80;;;;;;4492160;32;20100;-69
2022/10/23 07:14:33;;;;;;;;;;;18.50;72.90;;;;;;4492481;31;20170;-69
2022/10/23 07:16:59;;;;;;;;;;;18.50;73.00;;;;;;4495611;31;20103;-69
2022/10/23 07:19:25;;;;;;;;;;;18.50;73.10;;;;;;4495777;31;20260;-69
2022/10/23 07:21:51;;;;;;;;;;;18.50;73.30;;;;;;4495460;31;19981;-69
2022/10/23 07:24:16;;;;;;;;;;;18.50;73.50;;;;;;4495413;31;19969;-69
2022/10/23 07:26:43;;;;;;;;;;;18.50;73.60;;;;;;4495384;31;19993;-69
2022/10/23 07:29:10;;;;;;;;;;;18.50;73.90;;;;;;4495365;31;20390;-69
2022/10/23 07:31:36;;;;;;;;;;;18.60;73.70;;;;;;4495552;31;20079;-69
2022/10/23 07:34:01;;;;;;;;;;;18.60;73.50;;;;;;4495295;31;20096;-69
2022/10/23 07:36:27;;;;;;;;;;;18.70;73.40;;;;;;4480818;31;20384;-70
2022/10/23 07:38:53;;;;;;;;;;;18.80;73.10;;;;;;4495243;31;20013;-68
2022/10/23 07:41:19;;;;;;;;;;;18.90;72.90;;;;;;4495038;31;19992;-68
2022/10/23 07:43:45;;;;;;;;;;;19.00;72.60;;;;;;4495171;31;19973;-68
2022/10/23 07:46:11;;;;;;;;;;;19.10;72.30;;;;;;4495360;31;20056;-69
2022/10/23 07:48:37;;;;;;;;;;;19.30;72.00;;;;;;4495303;31;19972;-69
2022/10/23 07:51:07;;;;;;;;;;;19.40;71.90;;;;;;4495014;31;20025;-68
2022/10/23 07:53:33;;;;;;;;;;;19.60;71.50;;;;;;4495049;31;20190;-69
2022/10/23 07:56:00;;;;;;;;;;;19.60;71.10;;;;;;4494600;31;19974;-69
2022/10/23 07:58:27;;;;;;;;;;;19.70;70.70;;;;;;4495064;31;20314;-69
2022/10/23 08:00:57;;;;;;;;;;;19.80;70.50;;;;;;4494965;31;20371;-69
2022/10/23 08:03:30;;;;;;;;;;;19.90;70.40;;;;;;4494680;31;20064;-69
2022/10/23 08:05:56;;;;;;;;;;;20.00;70.10;;;;;;4495006;31;19977;-69
2022/10/23 08:08:22;;;;;;;;;;;20.10;70.00;;;;;;4494540;31;20075;-69
2022/10/23 08:10:49;;;;;;;;;;;20.20;69.80;;;;;;4494611;31;19989;-68
2022/10/23 08:13:15;;;;;;;;;;;20.20;69.60;;;;;;4494175;31;20075;-69
2022/10/23 08:15:42;;;;;;;;;;;20.30;69.50;;;;;;4494102;31;20413;-69
2022/10/23 08:18:07;;;;;;;;;;;20.30;69.40;;;;;;4494399;31;20329;-68
2022/10/23 08:20:37;;;;;;;;;;;20.40;69.30;;;;;;4494368;31;20055;-68
2022/10/23 08:23:03;;;;;;;;;;;20.40;69.20;;;;;;4494359;31;20024;-68
2022/10/23 08:25:29;;;;;;;;;;;20.50;69.10;;;;;;4493838;31;20330;-68
2022/10/23 08:27:54;;;;;;;;;;;20.50;68.90;;;;;;4494203;31;20377;-68
2022/10/23 08:30:20;;;;;;;;;;;20.60;68.90;;;;;;4494655;31;20322;-69
2022/10/23 08:32:46;;;;;;;;;;;20.60;69.70;;;;;;4480206;31;20001;-69
2022/10/23 08:35:11;;;;;;;;;;;20.60;68.80;;;;;;4494575;31;19969;-69
2022/10/23 08:37:37;;;;;;;;;;;20.60;68.70;;;;;;4494354;31;20470;-69
2022/10/23 08:40:03;;;;;;;;;;;20.70;68.70;;;;;;4494307;31;20010;-69
2022/10/23 08:42:30;;;;;;;;;;;20.70;68.70;;;;;;4494201;31;19982;-69
2022/10/23 08:44:58;;;;;;;;;;;20.70;68.60;;;;;;4494313;31;19989;-69
2022/10/23 08:47:28;;;;;;;;;;;20.80;68.70;;;;;;4494197;31;20104;-69
2022/10/23 08:50:24;;;;;;;;;;;20.80;68.70;;;;;;4494199;31;19966;-69
2022/10/23 08:52:52;;;;;;;;;;;20.80;68.70;;;;;;4483846;31;20056;-68
2022/10/23 08:55:18;;;;;;;;;;;20.70;68.70;;;;;;4494169;31;20105;-68
2022/10/23 08:58:13;;;;;;;;;;;20.80;68.80;;;;;;4494071;31;20119;-69
2022/10/23 09:00:40;;;;;;;;;;;20.80;68.80;;;;;;4492462;31;19977;-68
2022/10/23 09:03:09;;;;;;;;;;;20.90;68.80;;;;;;4494028;31;19966;-68
2022/10/23 09:05:49;;;;;;;;;;;20.90;68.90;;;;;;4493563;31;19973;-68
2022/10/23 09:08:22;;;;;;;;;;;20.90;68.60;;;;;;4493938;31;19988;-68
2022/10/23 09:10:58;;;;;;;;;;;21.00;68.60;;;;;;4493615;31;19985;-68
2022/10/23 09:13:26;;;;;;;;;;;21.00;68.60;;;;;;4493294;31;20023;-69
2022/10/23 09:15:57;;;;;;;;;;;21.10;68.60;;;;;;4479483;31;20419;-69
2022/10/23 09:18:23;;;;;;;;;;;21.10;68.60;;;;;;4479285;31;20109;-69
2022/10/23 09:20:51;;;;;;;;;;;21.10;68.60;;;;;;4493623;31;19982;-68
2022/10/23 09:23:18;;;;;;;;;;;21.20;68.60;;;;;;4493624;31;19977;-69
2022/10/23 09:25:45;;;;;;;;;;;21.20;68.50;;;;;;4493579;31;20391;-69
2022/10/23 09:28:19;;;;;;;;;;;21.20;68.60;;;;;;4493681;31;19993;-68
2022/10/23 09:30:45;;;;;;;;;;;21.30;68.60;;;;;;4493634;31;19984;-67
2022/10/23 09:33:13;;;;;;;;;;;21.30;68.50;;;;;;4493455;31;19978;-68
2022/10/23 09:35:50;;;;;;;;;;;21.30;68.40;;;;;;4493353;31;19992;-69
2022/10/23 09:38:25;;;;;;;;;;;21.40;68.30;;;;;;4492958;31;19992;-69
2022/10/23 09:40:50;;;;;;;;;;;21.40;68.30;;;;;;4493815;31;19984;-68
2022/10/23 09:43:18;;;;;;;;;;;21.50;68.20;;;;;;4493263;31;20331;-67
2022/10/23 09:45:54;;;;;;;;;;;21.50;68.20;;;;;;4493263;31;20382;-67
2022/10/23 09:48:20;;;;;;;;;;;21.50;68.10;;;;;;4493555;31;20292;-68
2022/10/23 09:50:50;;;;;;;;;;;21.60;68.10;;;;;;4493220;31;19966;-67
2022/10/23 09:53:17;;;;;;;;;;;21.60;68.00;;;;;;4493162;31;19989;-68
2022/10/23 09:55:49;;;;;;;;;;;21.60;68.00;;;;;;4493124;31;20521;-67
2022/10/23 09:58:19;;;;;;;;;;;21.60;68.00;;;;;;4492937;31;19977;-67
2022/10/23 10:00:46;;;;;;;;;;;21.60;68.00;;;;;;4493040;31;20106;-68
2022/10/23 10:03:22;;;;;;;;;;;21.60;67.90;;;;;;4492851;31;19966;-68
2022/10/23 10:05:55;;;;;;;;;;;21.70;68.00;;;;;;4493064;31;20016;-68
2022/10/23 10:08:30;;;;;;;;;;;21.70;68.00;;;;;;4493092;31;19973;-69
2022/10/23 10:11:11;;;;;;;;;;;21.70;68.00;;;;;;4492925;31;19970;-69
2022/10/23 10:13:55;;;;;;;;;;;21.70;68.00;;;;;;4492833;31;19985;-68
2022/10/23 10:16:39;;;;;;;;;;;21.70;68.00;;;;;;4493030;31;20484;-69
2022/10/23 10:19:10;;;;;;;;;;;21.70;68.00;;;;;;4478457;31;20039;-68
2022/10/23 10:21:42;;;;;;;;;;;21.70;68.00;;;;;;4492979;31;19974;-68
2022/10/23 10:24:13;;;;;;;;;;;21.70;68.00;;;;;;4492910;31;20453;-68
2022/10/23 10:26:51;;;;;;;;;;;21.70;68.00;;;;;;4493000;31;19970;-68
2022/10/23 10:29:42;;;;;;;;;;;21.70;68.10;;;;;;4492900;31;19977;-68
2022/10/23 10:32:20;;;;;;;;;;;21.70;68.20;;;;;;4493137;31;19984;-68
2022/10/23 10:34:50;;;;;;;;;;;21.60;68.30;;;;;;4492793;31;19985;-68
2022/10/23 10:37:25;;;;;;;;;;;21.60;68.40;;;;;;4493166;31;20389;-68
2022/10/23 10:39:57;;;;;;;;;;;21.50;68.60;;;;;;4492390;31;19973;-69
2022/10/23 10:42:29;;;;;;;;;;;21.50;68.70;;;;;;4492594;31;20318;-68
2022/10/23 10:45:06;;;;;;;;;;;21.50;68.80;;;;;;4478380;31;19996;-68
2022/10/23 10:47:37;;;;;;;;;;;21.50;68.90;;;;;;4492676;32;19984;-68
2022/10/23 10:50:17;;;;;;;;;;;21.60;68.90;;;;;;4494520;31;19984;-68
2022/10/23 10:52:48;;;;;;;;;;;21.50;68.90;;;;;;4495883;31;20029;-68
2022/10/23 10:55:14;;;;;;;;;;;21.50;68.90;;;;;;4495819;31;19985;-69
2022/10/23 10:57:45;;;;;;;;;;;21.50;69.00;;;;;;4495681;31;20062;-68
2022/10/23 11:00:13;;;;;;;;;;;21.50;69.10;;;;;;4495859;31;20114;-69
2022/10/23 11:02:41;;;;;;;;;;;21.50;69.20;;;;;;4495918;31;20057;-67
2022/10/23 11:05:30;;;;;;;;;;;21.40;69.30;;;;;;4495981;31;20432;-67
2022/10/23 11:07:55;;;;;;;;;;;21.50;69.40;;;;;;4495645;31;20031;-67
2022/10/23 11:10:21;;;;;;;;;;;21.40;69.50;;;;;;4495523;31;19972;-68
2022/10/23 11:12:47;;;;;;;;;;;21.40;69.60;;;;;;4495435;31;20026;-68
2022/10/23 11:15:42;;;;;;;;;;;21.40;69.70;;;;;;4495529;31;20005;-68
2022/10/23 11:18:22;;;;;;;;;;;21.30;69.80;;;;;;4484754;31;19970;-67
2022/10/23 11:20:49;;;;;;;;;;;21.30;70.00;;;;;;4495834;31;20036;-67
2022/10/23 11:23:25;;;;;;;;;;;21.20;70.00;;;;;;4495419;31;20027;-67
2022/10/23 11:26:09;;;;;;;;;;;21.20;70.10;;;;;;4495809;31;20017;-67
2022/10/23 11:28:38;;;;;;;;;;;21.20;70.20;;;;;;4495527;31;19974;-69
2022/10/23 11:31:03;;;;;;;;;;;21.10;70.30;;;;;;4495327;31;20444;-68
2022/10/23 11:33:29;;;;;;;;;;;21.10;70.50;;;;;;4495322;31;20458;-67
2022/10/23 11:36:11;;;;;;;;;;;21.00;70.50;;;;;;4495246;31;19973;-68
2022/10/23 11:38:39;;;;;;;;;;;21.00;70.80;;;;;;4495102;31;19984;-69
2022/10/23 11:41:14;;;;;;;;;;;21.00;71.00;;;;;;4495366;31;20119;-71
2022/10/23 11:43:50;;;;;;;;;;;20.90;71.20;;;;;;4495385;31;19991;-68
2022/10/23 11:46:26;;;;;;;;;;;20.80;71.20;;;;;;4495041;31;19985;-68
2022/10/23 11:48:53;;;;;;;;;;;20.80;71.50;;;;;;4495403;31;20321;-68
2022/10/23 11:51:32;;;;;;;;;;;20.70;71.60;;;;;;4481058;31;20373;-69
2022/10/23 11:54:21;;;;;;;;;;;20.70;71.70;;;;;;4495295;31;20088;-68
2022/10/23 11:56:54;;;;;;;;;;;20.60;71.90;;;;;;4481213;31;20058;-68
2022/10/23 11:59:22;;;;;;;;;;;20.60;72.00;;;;;;4494945;31;19988;-68
2022/10/23 12:01:50;;;;;;;;;;;20.50;72.10;;;;;;4494104;31;19970;-68
2022/10/23 12:04:19;;;;;;;;;;;20.50;72.30;;;;;;4494983;31;20158;-68
2022/10/23 12:06:48;;;;;;;;;;;20.50;72.50;;;;;;4494864;31;19970;-68
2022/10/23 12:09:26;;;;;;;;;;;20.40;72.50;;;;;;4494892;31;20028;-68
2022/10/23 12:12:14;;;;;;;;;;;20.40;72.60;;;;;;4494868;31;20083;-68
2022/10/23 12:14:40;;;;;;;;;;;20.30;72.70;;;;;;4494325;31;19992;-68
2022/10/23 12:17:35;;;;;;;;;;;20.30;72.90;;;;;;4494821;31;19965;-68
2022/10/23 12:20:11;;;;;;;;;;;20.30;73.00;;;;;;4476200;31;20377;-68
2022/10/23 12:22:36;;;;;;;;;;;20.30;73.00;;;;;;4494594;31;19973;-68
2022/10/23 12:25:03;;;;;;;;;;;20.20;73.20;;;;;;4494440;31;20043;-68
2022/10/23 12:28:01;;;;;;;;;;;20.20;73.20;;;;;;4494345;31;19970;-68
2022/10/23 12:30:34;;;;;;;;;;;20.20;73.40;;;;;;4467495;31;19973;-68
2022/10/23 12:33:12;;;;;;;;;;;20.20;73.40;;;;;;4494649;31;19988;-68
2022/10/23 12:36:01;;;;;;;;;;;20.20;73.50;;;;;;4494195;31;19988;-68
2022/10/23 12:38:28;;;;;;;;;;;20.20;73.50;;;;;;4494844;31;19965;-68
2022/10/23 12:41:03;;;;;;;;;;;20.10;73.50;;;;;;4494570;31;20061;-68
2022/10/23 12:43:30;;;;;;;;;;;20.10;73.60;;;;;;4494316;31;19970;-68
2022/10/23 12:46:00;;;;;;;;;;;20.10;73.70;;;;;;4494109;31;19969;-68
2022/10/23 12:48:26;;;;;;;;;;;20.10;73.60;;;;;;4494324;31;19981;-68
2022/10/23 12:50:53;;;;;;;;;;;20.10;73.60;;;;;;4494215;31;19980;-68
2022/10/23 12:53:20;;;;;;;;;;;20.10;73.70;;;;;;4494224;31;20046;-68
2022/10/23 12:55:48;;;;;;;;;;;20.10;73.70;;;;;;4493832;31;19977;-68
2022/10/23 12:58:22;;;;;;;;;;;20.00;73.70;;;;;;4494156;31;20488;-68
2022/10/23 13:00:56;;;;;;;;;;;20.00;73.80;;;;;;4494015;31;19974;-68
2022/10/23 13:03:23;;;;;;;;;;;20.00;73.70;;;;;;4494103;31;19981;-68
2022/10/23 13:05:50;;;;;;;;;;;20.00;73.70;;;;;;4479865;31;19970;-69
2022/10/23 13:08:16;;;;;;;;;;;20.00;73.80;;;;;;4493715;31;20083;-68
2022/10/23 13:10:42;;;;;;;;;;;20.00;73.80;;;;;;4494110;31;20425;-69
2022/10/23 13:13:09;;;;;;;;;;;19.90;73.70;;;;;;4492986;31;19969;-69
2022/10/23 13:15:39;;;;;;;;;;;19.90;73.80;;;;;;4493774;31;20015;-69
2022/10/23 13:18:06;;;;;;;;;;;19.90;73.90;;;;;;4494018;31;20051;-68
2022/10/23 13:20:34;;;;;;;;;;;19.90;73.80;;;;;;4493495;31;19973;-69
2022/10/23 13:23:18;;;;;;;;;;;19.90;73.90;;;;;;4493636;31;20394;-68
2022/10/23 13:26:02;;;;;;;;;;;19.90;74.00;;;;;;4493724;31;19993;-68
2022/10/23 13:28:32;;;;;;;;;;;19.90;74.00;;;;;;4493877;31;19988;-68
2022/10/23 13:30:58;;;;;;;;;;;19.90;74.00;;;;;;4493577;31;20153;-69
2022/10/23 13:33:24;;;;;;;;;;;19.90;74.00;;;;;;4493531;31;20194;-69
2022/10/23 13:36:17;;;;;;;;;;;19.80;74.00;;;;;;4493298;31;20112;-69
2022/10/23 13:38:44;;;;;;;;;;;19.80;74.00;;;;;;4491313;31;19989;-69
2022/10/23 13:41:12;;;;;;;;;;;19.80;74.00;;;;;;4493565;31;20106;-68
2022/10/23 13:43:38;;;;;;;;;;;19.80;74.00;;;;;;4493387;31;19979;-69
2022/10/23 13:46:04;;;;;;;;;;;19.80;74.00;;;;;;4493119;31;20029;-68
2022/10/23 13:48:30;;;;;;;;;;;19.80;74.10;;;;;;4479321;31;20330;-68
2022/10/23 13:51:00;;;;;;;;;;;19.80;74.10;;;;;;4493397;31;19980;-68
2022/10/23 13:53:25;;;;;;;;;;;19.80;74.10;;;;;;4493547;31;20111;-69
2022/10/23 13:55:51;;;;;;;;;;;19.70;74.10;;;;;;4493688;31;19957;-68
2022/10/23 13:58:17;;;;;;;;;;;19.80;74.20;;;;;;4493233;31;19981;-68
2022/10/23 14:00:44;;;;;;;;;;;19.80;74.20;;;;;;4492929;31;19965;-68
2022/10/23 14:03:10;;;;;;;;;;;19.70;74.10;;;;;;4492890;31;20050;-69
2022/10/23 14:05:36;;;;;;;;;;;19.70;75.00;;;;;;4493078;31;19973;-68
2022/10/23 14:08:01;;;;;;;;;;;19.70;74.20;;;;;;4493149;31;20499;-68
2022/10/23 14:10:27;;;;;;;;;;;19.70;74.20;;;;;;4492768;31;19961;-68
2022/10/23 14:12:53;;;;;;;;;;;19.70;74.20;;;;;;4493094;31;20469;-68
2022/10/23 14:15:20;;;;;;;;;;;19.70;74.20;;;;;;4492986;31;20162;-68
2022/10/23 14:17:45;;;;;;;;;;;19.70;74.30;;;;;;4493006;31;20399;-69
2022/10/23 14:20:11;;;;;;;;;;;19.70;74.30;;;;;;4493015;31;20032;-69
2022/10/23 14:22:37;;;;;;;;;;;19.70;74.30;;;;;;4478412;31;20104;-66
2022/10/23 14:25:03;;;;;;;;;;;19.70;74.30;;;;;;4492267;31;19974;-68
2022/10/23 14:27:29;;;;;;;;;;;19.60;74.40;;;;;;4494180;31;19981;-68